sensor_id;sensor_type;location;lat;lon;timestamp;P1;durP1;ratioP1;P2;durP2;ratioP2
68178;SDS011;54998;42.656;23.382;2022-07-22T00:01:52;8.40;;;4.13;;
68178;SDS011;54998;42.656;23.382;2022-07-22T00:04:18;6.88;;;4.20;;
68178;SDS011;54998;42.656;23.382;2022-07-22T00:06:43;6.03;;;4.63;;
68178;SDS011;54998;42.656;23.382;2022-07-22T00:09:09;6.25;;;3.75;;
68178;SDS011;54998;42.656;23.382;2022-07-22T00:11:34;8.90;;;4.45;;
68178;SDS011;54998;42.656;23.382;2022-07-22T00:14:00;7.32;;;4.25;;
68178;SDS011;54998;42.656;23.382;2022-07-22T00:16:26;8.00;;;4.03;;
68178;SDS011;54998;42.656;23.382;2022-07-22T00:18:51;8.48;;;4.07;;
68178;SDS011;54998;42.656;23.382;2022-07-22T00:21:17;7.15;;;4.13;;
68178;SDS011;54998;42.656;23.382;2022-07-22T00:23:42;6.97;;;3.92;;
68178;SDS011;54998;42.656;23.382;2022-07-22T00:26:08;7.18;;;4.13;;
68178;SDS011;54998;42.656;23.382;2022-07-22T00:28:33;6.60;;;4.40;;
68178;SDS011;54998;42.656;23.382;2022-07-22T00:30:59;5.70;;;4.30;;
68178;SDS011;54998;42.656;23.382;2022-07-22T00:33:24;7.18;;;4.25;;
68178;SDS011;54998;42.656;23.382;2022-07-22T00:35:50;8.07;;;4.72;;
68178;SDS011;54998;42.656;23.382;2022-07-22T00:38:15;7.20;;;4.38;;
68178;SDS011;54998;42.656;23.382;2022-07-22T00:40:41;8.15;;;4.47;;
68178;SDS011;54998;42.656;23.382;2022-07-22T00:43:06;7.18;;;4.53;;
68178;SDS011;54998;42.656;23.382;2022-07-22T00:45:32;7.05;;;4.55;;
68178;SDS011;54998;42.656;23.382;2022-07-22T00:47:57;9.73;;;4.65;;
68178;SDS011;54998;42.656;23.382;2022-07-22T00:50:23;5.90;;;4.53;;
68178;SDS011;54998;42.656;23.382;2022-07-22T00:55:24;8.13;;;5.00;;
68178;SDS011;54998;42.656;23.382;2022-07-22T00:57:49;10.55;;;4.28;;
68178;SDS011;54998;42.656;23.382;2022-07-22T01:00:16;9.05;;;4.72;;
68178;SDS011;54998;42.656;23.382;2022-07-22T01:02:43;7.47;;;4.60;;
68178;SDS011;54998;42.656;23.382;2022-07-22T01:05:09;9.20;;;4.65;;
68178;SDS011;54998;42.656;23.382;2022-07-22T01:07:36;6.50;;;4.20;;
68178;SDS011;54998;42.656;23.382;2022-07-22T01:10:03;6.65;;;4.22;;
68178;SDS011;54998;42.656;23.382;2022-07-22T01:12:29;8.82;;;4.60;;
68178;SDS011;54998;42.656;23.382;2022-07-22T01:14:55;7.47;;;4.95;;
68178;SDS011;54998;42.656;23.382;2022-07-22T01:17:20;10.52;;;4.55;;
68178;SDS011;54998;42.656;23.382;2022-07-22T01:19:46;7.07;;;4.57;;
68178;SDS011;54998;42.656;23.382;2022-07-22T01:22:12;7.00;;;4.57;;
68178;SDS011;54998;42.656;23.382;2022-07-22T01:24:37;8.05;;;4.55;;
68178;SDS011;54998;42.656;23.382;2022-07-22T01:27:03;9.43;;;4.30;;
68178;SDS011;54998;42.656;23.382;2022-07-22T01:29:28;6.45;;;4.32;;
68178;SDS011;54998;42.656;23.382;2022-07-22T01:31:54;7.80;;;4.63;;
68178;SDS011;54998;42.656;23.382;2022-07-22T01:34:19;7.85;;;4.78;;
68178;SDS011;54998;42.656;23.382;2022-07-22T01:36:45;12.63;;;4.70;;
68178;SDS011;54998;42.656;23.382;2022-07-22T01:41:39;6.43;;;4.97;;
68178;SDS011;54998;42.656;23.382;2022-07-22T01:44:05;8.60;;;5.18;;
68178;SDS011;54998;42.656;23.382;2022-07-22T01:46:30;7.30;;;5.13;;
68178;SDS011;54998;42.656;23.382;2022-07-22T01:48:56;8.57;;;5.07;;
68178;SDS011;54998;42.656;23.382;2022-07-22T01:51:22;7.20;;;4.53;;
68178;SDS011;54998;42.656;23.382;2022-07-22T01:53:47;8.23;;;5.13;;
68178;SDS011;54998;42.656;23.382;2022-07-22T01:56:13;9.27;;;4.75;;
68178;SDS011;54998;42.656;23.382;2022-07-22T01:58:39;7.10;;;4.72;;
68178;SDS011;54998;42.656;23.382;2022-07-22T02:01:05;6.55;;;4.82;;
68178;SDS011;54998;42.656;23.382;2022-07-22T02:03:30;6.75;;;4.43;;
68178;SDS011;54998;42.656;23.382;2022-07-22T02:05:56;6.57;;;4.82;;
68178;SDS011;54998;42.656;23.382;2022-07-22T02:08:21;7.75;;;4.78;;
68178;SDS011;54998;42.656;23.382;2022-07-22T02:10:47;7.15;;;4.97;;
68178;SDS011;54998;42.656;23.382;2022-07-22T02:13:12;7.53;;;4.80;;
68178;SDS011;54998;42.656;23.382;2022-07-22T02:15:38;9.38;;;5.03;;
68178;SDS011;54998;42.656;23.382;2022-07-22T02:18:14;7.00;;;5.07;;
68178;SDS011;54998;42.656;23.382;2022-07-22T02:20:41;9.73;;;4.95;;
68178;SDS011;54998;42.656;23.382;2022-07-22T02:25:33;11.13;;;4.75;;
68178;SDS011;54998;42.656;23.382;2022-07-22T02:27:59;8.45;;;5.47;;
68178;SDS011;54998;42.656;23.382;2022-07-22T02:30:25;11.23;;;5.75;;
68178;SDS011;54998;42.656;23.382;2022-07-22T02:32:51;10.88;;;5.22;;
68178;SDS011;54998;42.656;23.382;2022-07-22T02:35:17;12.32;;;7.00;;
68178;SDS011;54998;42.656;23.382;2022-07-22T02:37:42;7.05;;;5.45;;
68178;SDS011;54998;42.656;23.382;2022-07-22T02:40:08;7.70;;;5.15;;
68178;SDS011;54998;42.656;23.382;2022-07-22T02:42:34;8.10;;;5.32;;
68178;SDS011;54998;42.656;23.382;2022-07-22T02:44:59;11.20;;;5.63;;
68178;SDS011;54998;42.656;23.382;2022-07-22T02:47:25;9.18;;;5.35;;
68178;SDS011;54998;42.656;23.382;2022-07-22T02:49:51;6.53;;;5.22;;
68178;SDS011;54998;42.656;23.382;2022-07-22T02:52:16;10.73;;;5.32;;
68178;SDS011;54998;42.656;23.382;2022-07-22T02:54:42;10.98;;;6.25;;
68178;SDS011;54998;42.656;23.382;2022-07-22T02:57:08;9.95;;;6.20;;
68178;SDS011;54998;42.656;23.382;2022-07-22T02:59:33;10.00;;;5.85;;
68178;SDS011;54998;42.656;23.382;2022-07-22T03:01:59;13.07;;;5.32;;
68178;SDS011;54998;42.656;23.382;2022-07-22T03:04:24;9.95;;;5.68;;
68178;SDS011;54998;42.656;23.382;2022-07-22T03:06:50;7.90;;;5.32;;
68178;SDS011;54998;42.656;23.382;2022-07-22T03:09:15;7.20;;;5.53;;
68178;SDS011;54998;42.656;23.382;2022-07-22T03:14:09;9.52;;;5.20;;
68178;SDS011;54998;42.656;23.382;2022-07-22T03:16:35;9.68;;;5.72;;
68178;SDS011;54998;42.656;23.382;2022-07-22T03:19:00;9.20;;;5.80;;
68178;SDS011;54998;42.656;23.382;2022-07-22T03:21:26;7.75;;;5.32;;
68178;SDS011;54998;42.656;23.382;2022-07-22T03:23:52;9.98;;;6.53;;
68178;SDS011;54998;42.656;23.382;2022-07-22T03:26:19;8.52;;;5.50;;
68178;SDS011;54998;42.656;23.382;2022-07-22T03:28:45;9.55;;;6.70;;
68178;SDS011;54998;42.656;23.382;2022-07-22T03:31:12;10.27;;;5.50;;
68178;SDS011;54998;42.656;23.382;2022-07-22T03:33:37;9.55;;;5.57;;
68178;SDS011;54998;42.656;23.382;2022-07-22T03:36:02;7.90;;;5.78;;
68178;SDS011;54998;42.656;23.382;2022-07-22T03:38:30;9.00;;;5.72;;
68178;SDS011;54998;42.656;23.382;2022-07-22T03:40:56;10.43;;;5.93;;
68178;SDS011;54998;42.656;23.382;2022-07-22T03:43:21;10.23;;;6.30;;
68178;SDS011;54998;42.656;23.382;2022-07-22T03:48:22;11.38;;;5.88;;
68178;SDS011;54998;42.656;23.382;2022-07-22T03:50:47;13.70;;;6.93;;
68178;SDS011;54998;42.656;23.382;2022-07-22T03:53:14;12.63;;;6.93;;
68178;SDS011;54998;42.656;23.382;2022-07-22T03:55:40;16.15;;;7.60;;
68178;SDS011;54998;42.656;23.382;2022-07-22T03:58:06;10.35;;;6.43;;
68178;SDS011;54998;42.656;23.382;2022-07-22T04:00:31;10.75;;;6.13;;
68178;SDS011;54998;42.656;23.382;2022-07-22T04:02:57;12.25;;;6.75;;
68178;SDS011;54998;42.656;23.382;2022-07-22T04:05:22;12.77;;;6.45;;
68178;SDS011;54998;42.656;23.382;2022-07-22T04:07:48;11.60;;;6.30;;
68178;SDS011;54998;42.656;23.382;2022-07-22T04:10:13;13.60;;;6.78;;
68178;SDS011;54998;42.656;23.382;2022-07-22T04:12:41;11.45;;;5.50;;
68178;SDS011;54998;42.656;23.382;2022-07-22T04:15:07;11.55;;;5.45;;
68178;SDS011;54998;42.656;23.382;2022-07-22T04:17:33;10.98;;;6.07;;
68178;SDS011;54998;42.656;23.382;2022-07-22T04:22:40;11.90;;;6.30;;
68178;SDS011;54998;42.656;23.382;2022-07-22T04:25:06;8.25;;;6.03;;
68178;SDS011;54998;42.656;23.382;2022-07-22T04:27:32;14.15;;;6.75;;
68178;SDS011;54998;42.656;23.382;2022-07-22T04:29:58;14.77;;;5.97;;
68178;SDS011;54998;42.656;23.382;2022-07-22T04:32:23;8.82;;;6.00;;
68178;SDS011;54998;42.656;23.382;2022-07-22T04:34:49;10.05;;;5.30;;
68178;SDS011;54998;42.656;23.382;2022-07-22T04:37:14;10.05;;;5.20;;
68178;SDS011;54998;42.656;23.382;2022-07-22T04:39:40;9.38;;;5.53;;
68178;SDS011;54998;42.656;23.382;2022-07-22T04:42:05;9.63;;;6.10;;
68178;SDS011;54998;42.656;23.382;2022-07-22T04:44:31;9.02;;;5.90;;
68178;SDS011;54998;42.656;23.382;2022-07-22T04:46:56;8.43;;;6.13;;
68178;SDS011;54998;42.656;23.382;2022-07-22T04:49:22;8.30;;;6.03;;
68178;SDS011;54998;42.656;23.382;2022-07-22T04:51:48;10.57;;;6.22;;
68178;SDS011;54998;42.656;23.382;2022-07-22T04:54:13;12.25;;;6.60;;
68178;SDS011;54998;42.656;23.382;2022-07-22T04:56:39;9.35;;;6.43;;
68178;SDS011;54998;42.656;23.382;2022-07-22T04:59:04;10.73;;;7.00;;
68178;SDS011;54998;42.656;23.382;2022-07-22T05:01:30;10.85;;;7.38;;
68178;SDS011;54998;42.656;23.382;2022-07-22T05:03:55;12.00;;;6.95;;
68178;SDS011;54998;42.656;23.382;2022-07-22T05:06:21;14.88;;;7.13;;
68178;SDS011;54998;42.656;23.382;2022-07-22T05:08:46;11.85;;;7.45;;
68178;SDS011;54998;42.656;23.382;2022-07-22T05:11:11;14.50;;;7.45;;
68178;SDS011;54998;42.656;23.382;2022-07-22T05:13:37;12.95;;;7.88;;
68178;SDS011;54998;42.656;23.382;2022-07-22T05:16:03;13.18;;;7.40;;
68178;SDS011;54998;42.656;23.382;2022-07-22T05:18:29;13.35;;;8.05;;
68178;SDS011;54998;42.656;23.382;2022-07-22T05:20:55;12.43;;;7.20;;
68178;SDS011;54998;42.656;23.382;2022-07-22T05:23:20;14.35;;;6.70;;
68178;SDS011;54998;42.656;23.382;2022-07-22T05:25:46;10.50;;;6.72;;
68178;SDS011;54998;42.656;23.382;2022-07-22T05:28:11;11.77;;;6.68;;
68178;SDS011;54998;42.656;23.382;2022-07-22T05:30:37;10.27;;;6.97;;
68178;SDS011;54998;42.656;23.382;2022-07-22T05:33:02;10.68;;;7.07;;
68178;SDS011;54998;42.656;23.382;2022-07-22T05:35:28;10.32;;;7.07;;
68178;SDS011;54998;42.656;23.382;2022-07-22T05:37:53;11.45;;;7.07;;
68178;SDS011;54998;42.656;23.382;2022-07-22T05:40:19;13.20;;;8.13;;
68178;SDS011;54998;42.656;23.382;2022-07-22T05:45:09;12.52;;;7.68;;
68178;SDS011;54998;42.656;23.382;2022-07-22T05:50:00;11.52;;;8.10;;
68178;SDS011;54998;42.656;23.382;2022-07-22T05:52:26;15.05;;;7.35;;
68178;SDS011;54998;42.656;23.382;2022-07-22T05:54:51;12.30;;;7.53;;
68178;SDS011;54998;42.656;23.382;2022-07-22T05:57:17;13.23;;;7.85;;
68178;SDS011;54998;42.656;23.382;2022-07-22T05:59:42;9.35;;;7.47;;
68178;SDS011;54998;42.656;23.382;2022-07-22T06:02:08;11.50;;;7.47;;
68178;SDS011;54998;42.656;23.382;2022-07-22T06:04:33;11.80;;;8.07;;
68178;SDS011;54998;42.656;23.382;2022-07-22T06:06:59;12.20;;;7.90;;
68178;SDS011;54998;42.656;23.382;2022-07-22T06:09:24;15.60;;;8.32;;
68178;SDS011;54998;42.656;23.382;2022-07-22T06:11:50;18.00;;;9.63;;
68178;SDS011;54998;42.656;23.382;2022-07-22T06:14:16;17.25;;;8.75;;
68178;SDS011;54998;42.656;23.382;2022-07-22T06:16:41;13.23;;;9.20;;
68178;SDS011;54998;42.656;23.382;2022-07-22T06:19:06;12.48;;;7.82;;
68178;SDS011;54998;42.656;23.382;2022-07-22T06:21:32;15.55;;;9.05;;
68178;SDS011;54998;42.656;23.382;2022-07-22T06:23:57;14.38;;;8.95;;
68178;SDS011;54998;42.656;23.382;2022-07-22T06:26:23;14.38;;;8.48;;
68178;SDS011;54998;42.656;23.382;2022-07-22T06:28:48;11.15;;;7.82;;
68178;SDS011;54998;42.656;23.382;2022-07-22T06:31:14;13.40;;;8.65;;
68178;SDS011;54998;42.656;23.382;2022-07-22T06:33:41;15.23;;;9.70;;
68178;SDS011;54998;42.656;23.382;2022-07-22T06:36:07;17.50;;;9.68;;
68178;SDS011;54998;42.656;23.382;2022-07-22T06:38:32;18.15;;;9.82;;
68178;SDS011;54998;42.656;23.382;2022-07-22T06:40:58;15.30;;;9.90;;
68178;SDS011;54998;42.656;23.382;2022-07-22T06:43:23;16.50;;;9.98;;
68178;SDS011;54998;42.656;23.382;2022-07-22T06:45:49;16.27;;;9.18;;
68178;SDS011;54998;42.656;23.382;2022-07-22T06:48:15;14.68;;;8.90;;
68178;SDS011;54998;42.656;23.382;2022-07-22T06:50:41;15.32;;;9.88;;
68178;SDS011;54998;42.656;23.382;2022-07-22T06:53:06;14.63;;;10.13;;
68178;SDS011;54998;42.656;23.382;2022-07-22T06:55:31;12.43;;;7.90;;
68178;SDS011;54998;42.656;23.382;2022-07-22T06:57:57;17.40;;;9.77;;
68178;SDS011;54998;42.656;23.382;2022-07-22T07:00:23;12.00;;;8.45;;
68178;SDS011;54998;42.656;23.382;2022-07-22T07:02:49;14.50;;;8.95;;
68178;SDS011;54998;42.656;23.382;2022-07-22T07:05:14;14.65;;;8.48;;
68178;SDS011;54998;42.656;23.382;2022-07-22T07:07:40;11.32;;;7.90;;
68178;SDS011;54998;42.656;23.382;2022-07-22T07:10:05;12.52;;;8.15;;
68178;SDS011;54998;42.656;23.382;2022-07-22T07:12:31;10.68;;;7.10;;
68178;SDS011;54998;42.656;23.382;2022-07-22T07:14:57;13.30;;;7.97;;
68178;SDS011;54998;42.656;23.382;2022-07-22T07:17:22;16.45;;;7.30;;
68178;SDS011;54998;42.656;23.382;2022-07-22T07:19:49;12.13;;;6.97;;
68178;SDS011;54998;42.656;23.382;2022-07-22T07:22:14;10.07;;;7.30;;
68178;SDS011;54998;42.656;23.382;2022-07-22T07:24:40;10.10;;;6.68;;
68178;SDS011;54998;42.656;23.382;2022-07-22T07:27:05;9.50;;;6.57;;
68178;SDS011;54998;42.656;23.382;2022-07-22T07:29:31;11.77;;;6.03;;
68178;SDS011;54998;42.656;23.382;2022-07-22T07:31:57;12.00;;;6.38;;
68178;SDS011;54998;42.656;23.382;2022-07-22T07:34:22;8.55;;;5.85;;
68178;SDS011;54998;42.656;23.382;2022-07-22T07:36:48;8.82;;;6.43;;
68178;SDS011;54998;42.656;23.382;2022-07-22T07:39:13;11.00;;;5.97;;
68178;SDS011;54998;42.656;23.382;2022-07-22T07:41:39;8.32;;;5.85;;
68178;SDS011;54998;42.656;23.382;2022-07-22T07:44:05;11.90;;;6.63;;
68178;SDS011;54998;42.656;23.382;2022-07-22T07:46:31;7.70;;;5.78;;
68178;SDS011;54998;42.656;23.382;2022-07-22T07:48:56;11.20;;;6.22;;
68178;SDS011;54998;42.656;23.382;2022-07-22T07:51:22;10.00;;;6.80;;
68178;SDS011;54998;42.656;23.382;2022-07-22T07:53:47;11.80;;;6.72;;
68178;SDS011;54998;42.656;23.382;2022-07-22T07:56:13;8.82;;;6.13;;
68178;SDS011;54998;42.656;23.382;2022-07-22T07:58:38;10.93;;;6.70;;
68178;SDS011;54998;42.656;23.382;2022-07-22T08:01:04;11.00;;;5.85;;
68178;SDS011;54998;42.656;23.382;2022-07-22T08:03:30;8.60;;;6.05;;
68178;SDS011;54998;42.656;23.382;2022-07-22T08:05:56;9.23;;;5.90;;
68178;SDS011;54998;42.656;23.382;2022-07-22T08:08:22;8.27;;;5.43;;
68178;SDS011;54998;42.656;23.382;2022-07-22T08:10:48;9.25;;;5.78;;
68178;SDS011;54998;42.656;23.382;2022-07-22T08:13:13;6.13;;;5.20;;
68178;SDS011;54998;42.656;23.382;2022-07-22T08:15:39;8.15;;;5.43;;
68178;SDS011;54998;42.656;23.382;2022-07-22T08:18:04;8.02;;;5.97;;
68178;SDS011;54998;42.656;23.382;2022-07-22T08:20:30;6.32;;;5.60;;
68178;SDS011;54998;42.656;23.382;2022-07-22T08:22:55;6.72;;;5.78;;
68178;SDS011;54998;42.656;23.382;2022-07-22T08:25:21;9.70;;;5.70;;
68178;SDS011;54998;42.656;23.382;2022-07-22T08:27:46;7.32;;;6.40;;
68178;SDS011;54998;42.656;23.382;2022-07-22T08:30:12;8.48;;;5.72;;
68178;SDS011;54998;42.656;23.382;2022-07-22T08:32:38;8.40;;;6.22;;
68178;SDS011;54998;42.656;23.382;2022-07-22T08:35:04;9.57;;;6.75;;
68178;SDS011;54998;42.656;23.382;2022-07-22T08:37:30;8.55;;;6.20;;
68178;SDS011;54998;42.656;23.382;2022-07-22T08:39:55;7.38;;;5.72;;
68178;SDS011;54998;42.656;23.382;2022-07-22T08:42:23;9.55;;;5.95;;
68178;SDS011;54998;42.656;23.382;2022-07-22T08:44:50;7.50;;;5.35;;
68178;SDS011;54998;42.656;23.382;2022-07-22T08:47:20;8.10;;;5.88;;
68178;SDS011;54998;42.656;23.382;2022-07-22T08:49:49;7.38;;;5.65;;
68178;SDS011;54998;42.656;23.382;2022-07-22T08:52:15;8.57;;;6.05;;
68178;SDS011;54998;42.656;23.382;2022-07-22T08:54:40;7.38;;;6.05;;
68178;SDS011;54998;42.656;23.382;2022-07-22T08:57:06;9.05;;;5.43;;
68178;SDS011;54998;42.656;23.382;2022-07-22T08:59:31;7.35;;;4.78;;
68178;SDS011;54998;42.656;23.382;2022-07-22T09:02:07;6.85;;;4.70;;
68178;SDS011;54998;42.656;23.382;2022-07-22T09:04:52;7.15;;;4.95;;
68178;SDS011;54998;42.656;23.382;2022-07-22T09:07:32;6.40;;;4.90;;
68178;SDS011;54998;42.656;23.382;2022-07-22T09:10:00;8.07;;;4.85;;
68178;SDS011;54998;42.656;23.382;2022-07-22T09:12:28;6.95;;;5.13;;
68178;SDS011;54998;42.656;23.382;2022-07-22T09:14:55;9.05;;;5.03;;
68178;SDS011;54998;42.656;23.382;2022-07-22T09:17:26;13.18;;;5.68;;
68178;SDS011;54998;42.656;23.382;2022-07-22T09:19:57;7.78;;;5.50;;
68178;SDS011;54998;42.656;23.382;2022-07-22T09:22:31;8.95;;;7.28;;
68178;SDS011;54998;42.656;23.382;2022-07-22T09:30:31;9.82;;;5.47;;
68178;SDS011;54998;42.656;23.382;2022-07-22T09:33:10;10.43;;;5.68;;
68178;SDS011;54998;42.656;23.382;2022-07-22T09:35:36;10.02;;;6.07;;
68178;SDS011;54998;42.656;23.382;2022-07-22T09:38:04;8.30;;;5.55;;
68178;SDS011;54998;42.656;23.382;2022-07-22T09:40:31;6.63;;;5.97;;
68178;SDS011;54998;42.656;23.382;2022-07-22T09:43:03;8.35;;;6.00;;
68178;SDS011;54998;42.656;23.382;2022-07-22T09:47:57;7.63;;;5.85;;
68178;SDS011;54998;42.656;23.382;2022-07-22T09:50:25;8.60;;;6.18;;
68178;SDS011;54998;42.656;23.382;2022-07-22T09:52:55;8.05;;;5.95;;
68178;SDS011;54998;42.656;23.382;2022-07-22T09:55:22;8.20;;;5.70;;
68178;SDS011;54998;42.656;23.382;2022-07-22T09:57:49;8.75;;;6.05;;
68178;SDS011;54998;42.656;23.382;2022-07-22T10:00:17;6.72;;;5.70;;
68178;SDS011;54998;42.656;23.382;2022-07-22T10:02:51;8.45;;;5.88;;
68178;SDS011;54998;42.656;23.382;2022-07-22T10:05:21;7.78;;;5.57;;
68178;SDS011;54998;42.656;23.382;2022-07-22T10:07:48;6.82;;;5.60;;
68178;SDS011;54998;42.656;23.382;2022-07-22T10:10:15;6.95;;;6.25;;
68178;SDS011;54998;42.656;23.382;2022-07-22T10:12:43;6.18;;;5.55;;
68178;SDS011;54998;42.656;23.382;2022-07-22T10:15:11;8.70;;;5.78;;
68178;SDS011;54998;42.656;23.382;2022-07-22T10:17:37;7.30;;;5.57;;
68178;SDS011;54998;42.656;23.382;2022-07-22T10:20:07;6.75;;;6.05;;
68178;SDS011;54998;42.656;23.382;2022-07-22T10:25:13;8.63;;;5.65;;
68178;SDS011;54998;42.656;23.382;2022-07-22T10:27:46;7.38;;;6.25;;
68178;SDS011;54998;42.656;23.382;2022-07-22T10:30:13;7.85;;;6.53;;
68178;SDS011;54998;42.656;23.382;2022-07-22T10:32:41;6.80;;;6.20;;
68178;SDS011;54998;42.656;23.382;2022-07-22T10:45:25;7.65;;;5.53;;
68178;SDS011;54998;42.656;23.382;2022-07-22T10:48:05;10.43;;;5.57;;
68178;SDS011;54998;42.656;23.382;2022-07-22T10:53:01;8.90;;;5.80;;
68178;SDS011;54998;42.656;23.382;2022-07-22T10:55:27;6.43;;;5.57;;
68178;SDS011;54998;42.656;23.382;2022-07-22T10:57:53;6.68;;;5.28;;
68178;SDS011;54998;42.656;23.382;2022-07-22T11:00:19;10.25;;;5.75;;
68178;SDS011;54998;42.656;23.382;2022-07-22T11:02:44;12.00;;;6.18;;
68178;SDS011;54998;42.656;23.382;2022-07-22T11:05:10;8.18;;;5.80;;
68178;SDS011;54998;42.656;23.382;2022-07-22T11:07:42;9.02;;;6.35;;
68178;SDS011;54998;42.656;23.382;2022-07-22T11:10:13;9.23;;;6.70;;
68178;SDS011;54998;42.656;23.382;2022-07-22T11:12:40;8.02;;;6.53;;
68178;SDS011;54998;42.656;23.382;2022-07-22T11:15:07;8.55;;;6.65;;
68178;SDS011;54998;42.656;23.382;2022-07-22T11:17:33;6.22;;;5.63;;
68178;SDS011;54998;42.656;23.382;2022-07-22T11:20:03;6.68;;;5.88;;
68178;SDS011;54998;42.656;23.382;2022-07-22T11:22:31;7.82;;;6.43;;
68178;SDS011;54998;42.656;23.382;2022-07-22T11:24:57;7.80;;;6.32;;
68178;SDS011;54998;42.656;23.382;2022-07-22T11:27:25;10.02;;;6.00;;
68178;SDS011;54998;42.656;23.382;2022-07-22T11:29:51;7.10;;;6.40;;
68178;SDS011;54998;42.656;23.382;2022-07-22T11:32:19;8.43;;;6.30;;
68178;SDS011;54998;42.656;23.382;2022-07-22T11:34:45;8.98;;;6.07;;
68178;SDS011;54998;42.656;23.382;2022-07-22T11:37:15;9.55;;;5.68;;
68178;SDS011;54998;42.656;23.382;2022-07-22T11:39:42;7.25;;;5.20;;
68178;SDS011;54998;42.656;23.382;2022-07-22T11:42:08;7.95;;;5.22;;
68178;SDS011;54998;42.656;23.382;2022-07-22T11:44:35;6.43;;;5.20;;
68178;SDS011;54998;42.656;23.382;2022-07-22T11:47:02;7.25;;;6.28;;
68178;SDS011;54998;42.656;23.382;2022-07-22T11:49:29;9.50;;;5.70;;
68178;SDS011;54998;42.656;23.382;2022-07-22T11:51:56;8.13;;;5.80;;
68178;SDS011;54998;42.656;23.382;2022-07-22T11:54:22;7.38;;;5.60;;
68178;SDS011;54998;42.656;23.382;2022-07-22T11:56:48;9.82;;;5.55;;
68178;SDS011;54998;42.656;23.382;2022-07-22T11:59:16;6.28;;;5.45;;
68178;SDS011;54998;42.656;23.382;2022-07-22T12:01:46;10.13;;;5.68;;
68178;SDS011;54998;42.656;23.382;2022-07-22T12:04:13;9.43;;;5.53;;
68178;SDS011;54998;42.656;23.382;2022-07-22T12:06:43;7.13;;;5.55;;
68178;SDS011;54998;42.656;23.382;2022-07-22T12:09:14;8.40;;;5.00;;
68178;SDS011;54998;42.656;23.382;2022-07-22T12:11:43;8.65;;;5.22;;
68178;SDS011;54998;42.656;23.382;2022-07-22T12:14:12;9.77;;;5.32;;
68178;SDS011;54998;42.656;23.382;2022-07-22T12:16:40;9.25;;;5.82;;
68178;SDS011;54998;42.656;23.382;2022-07-22T12:19:11;8.73;;;4.82;;
68178;SDS011;54998;42.656;23.382;2022-07-22T12:21:54;9.23;;;5.50;;
68178;SDS011;54998;42.656;23.382;2022-07-22T12:24:30;9.13;;;5.40;;
68178;SDS011;54998;42.656;23.382;2022-07-22T12:29:28;9.23;;;5.10;;
68178;SDS011;54998;42.656;23.382;2022-07-22T12:32:01;8.57;;;5.05;;
68178;SDS011;54998;42.656;23.382;2022-07-22T12:34:41;8.15;;;4.78;;
68178;SDS011;54998;42.656;23.382;2022-07-22T12:37:20;9.15;;;5.43;;
68178;SDS011;54998;42.656;23.382;2022-07-22T12:39:54;5.78;;;4.68;;
68178;SDS011;54998;42.656;23.382;2022-07-22T12:42:41;10.02;;;5.38;;
68178;SDS011;54998;42.656;23.382;2022-07-22T12:45:09;6.82;;;4.50;;
68178;SDS011;54998;42.656;23.382;2022-07-22T12:50:19;8.55;;;4.60;;
68178;SDS011;54998;42.656;23.382;2022-07-22T12:52:47;5.82;;;3.95;;
68178;SDS011;54998;42.656;23.382;2022-07-22T12:55:17;6.82;;;4.07;;
68178;SDS011;54998;42.656;23.382;2022-07-22T12:57:43;8.45;;;4.40;;
68178;SDS011;54998;42.656;23.382;2022-07-22T13:00:09;8.13;;;4.40;;
68178;SDS011;54998;42.656;23.382;2022-07-22T13:02:35;7.43;;;4.53;;
68178;SDS011;54998;42.656;23.382;2022-07-22T13:05:01;6.55;;;4.28;;
68178;SDS011;54998;42.656;23.382;2022-07-22T13:09:51;7.43;;;4.40;;
68178;SDS011;54998;42.656;23.382;2022-07-22T13:14:42;8.88;;;4.18;;
68178;SDS011;54998;42.656;23.382;2022-07-22T13:19:33;5.65;;;3.78;;
68178;SDS011;54998;42.656;23.382;2022-07-22T13:21:58;9.95;;;4.63;;
68178;SDS011;54998;42.656;23.382;2022-07-22T13:26:49;10.02;;;5.70;;
68178;SDS011;54998;42.656;23.382;2022-07-22T13:31:41;8.38;;;4.03;;
68178;SDS011;54998;42.656;23.382;2022-07-22T13:34:06;7.70;;;4.30;;
68178;SDS011;54998;42.656;23.382;2022-07-22T13:36:33;8.73;;;4.32;;
68178;SDS011;54998;42.656;23.382;2022-07-22T13:38:59;7.20;;;3.70;;
68178;SDS011;54998;42.656;23.382;2022-07-22T13:41:25;8.38;;;4.47;;
68178;SDS011;54998;42.656;23.382;2022-07-22T13:46:17;6.78;;;4.30;;
68178;SDS011;54998;42.656;23.382;2022-07-22T13:48:43;11.48;;;4.13;;
68178;SDS011;54998;42.656;23.382;2022-07-22T13:51:09;6.25;;;3.85;;
68178;SDS011;54998;42.656;23.382;2022-07-22T13:56:00;7.47;;;4.05;;
68178;SDS011;54998;42.656;23.382;2022-07-22T13:58:26;8.75;;;4.22;;
68178;SDS011;54998;42.656;23.382;2022-07-22T14:03:17;9.40;;;4.18;;
68178;SDS011;54998;42.656;23.382;2022-07-22T14:08:08;6.95;;;4.22;;
68178;SDS011;54998;42.656;23.382;2022-07-22T14:12:59;6.80;;;4.45;;
68178;SDS011;54998;42.656;23.382;2022-07-22T14:17:50;6.60;;;4.18;;
68178;SDS011;54998;42.656;23.382;2022-07-22T14:22:41;9.85;;;4.05;;
68178;SDS011;54998;42.656;23.382;2022-07-22T14:27:31;6.70;;;4.75;;
68178;SDS011;54998;42.656;23.382;2022-07-22T14:32:22;8.60;;;4.25;;
68178;SDS011;54998;42.656;23.382;2022-07-22T14:37:13;7.20;;;3.90;;
68178;SDS011;54998;42.656;23.382;2022-07-22T14:42:04;6.57;;;3.47;;
68178;SDS011;54998;42.656;23.382;2022-07-22T14:44:30;6.38;;;4.18;;
68178;SDS011;54998;42.656;23.382;2022-07-22T14:46:55;6.15;;;4.18;;
68178;SDS011;54998;42.656;23.382;2022-07-22T14:51:46;8.20;;;4.43;;
68178;SDS011;54998;42.656;23.382;2022-07-22T14:56:40;6.55;;;4.28;;
68178;SDS011;54998;42.656;23.382;2022-07-22T14:59:05;7.85;;;4.47;;
68178;SDS011;54998;42.656;23.382;2022-07-22T15:03:57;6.97;;;3.70;;
68178;SDS011;54998;42.656;23.382;2022-07-22T15:08:48;7.63;;;4.10;;
68178;SDS011;54998;42.656;23.382;2022-07-22T15:11:13;7.13;;;3.80;;
68178;SDS011;54998;42.656;23.382;2022-07-22T15:16:04;8.10;;;4.28;;
68178;SDS011;54998;42.656;23.382;2022-07-22T15:20:55;4.90;;;4.03;;
68178;SDS011;54998;42.656;23.382;2022-07-22T15:23:24;4.95;;;4.13;;
68178;SDS011;54998;42.656;23.382;2022-07-22T15:25:59;5.85;;;3.85;;
68178;SDS011;54998;42.656;23.382;2022-07-22T15:28:26;5.47;;;4.13;;
68178;SDS011;54998;42.656;23.382;2022-07-22T15:30:55;11.18;;;4.07;;
68178;SDS011;54998;42.656;23.382;2022-07-22T15:33:21;6.47;;;3.90;;
68178;SDS011;54998;42.656;23.382;2022-07-22T15:38:12;7.70;;;4.10;;
68178;SDS011;54998;42.656;23.382;2022-07-22T15:40:37;5.72;;;3.75;;
68178;SDS011;54998;42.656;23.382;2022-07-22T15:43:04;8.35;;;4.40;;
68178;SDS011;54998;42.656;23.382;2022-07-22T15:48:05;7.30;;;4.00;;
68178;SDS011;54998;42.656;23.382;2022-07-22T15:52:56;5.03;;;3.67;;
68178;SDS011;54998;42.656;23.382;2022-07-22T15:57:47;7.53;;;3.90;;
68178;SDS011;54998;42.656;23.382;2022-07-22T16:00:32;9.82;;;3.78;;
68178;SDS011;54998;42.656;23.382;2022-07-22T16:05:23;4.93;;;3.75;;
68178;SDS011;54998;42.656;23.382;2022-07-22T16:07:49;6.55;;;4.40;;
68178;SDS011;54998;42.656;23.382;2022-07-22T16:12:40;6.32;;;3.40;;
68178;SDS011;54998;42.656;23.382;2022-07-22T16:15:05;7.30;;;3.33;;
68178;SDS011;54998;42.656;23.382;2022-07-22T16:19:56;7.60;;;4.28;;
68178;SDS011;54998;42.656;23.382;2022-07-22T16:22:22;7.70;;;4.03;;
68178;SDS011;54998;42.656;23.382;2022-07-22T16:24:47;7.10;;;4.45;;
68178;SDS011;54998;42.656;23.382;2022-07-22T16:27:13;8.00;;;4.18;;